createdAt,value
2022-11-15T00:00:55.927Z,9.719200
2022-11-15T00:01:55.965Z,9.719293
2022-11-15T00:02:55.890Z,9.719290
2022-11-15T00:03:55.890Z,9.719289
2022-11-15T00:04:55.882Z,9.719316
2022-11-15T00:05:55.887Z,9.719245
2022-11-15T00:06:55.922Z,9.719220
2022-11-15T00:07:56.424Z,9.719202
2022-11-15T00:08:56.855Z,9.719265
2022-11-15T00:09:55.839Z,9.719275
2022-11-15T00:10:55.834Z,9.719229
2022-11-15T00:11:55.808Z,9.719130
2022-11-15T00:12:55.841Z,9.719043
2022-11-15T00:13:55.861Z,9.719055
2022-11-15T00:14:55.781Z,9.718942
2022-11-15T00:15:55.761Z,9.718926
2022-11-15T00:16:55.762Z,9.718965
2022-11-15T00:17:55.752Z,9.718941
2022-11-15T00:18:55.760Z,9.718933
2022-11-15T00:19:55.740Z,9.718944
2022-11-15T00:20:55.715Z,9.719033
2022-11-15T00:21:55.744Z,9.719088
2022-11-15T00:22:55.697Z,9.719015
2022-11-15T00:23:55.686Z,9.718873
2022-11-15T00:24:55.694Z,9.718841
2022-11-15T00:25:55.664Z,9.718853
2022-11-15T00:26:55.653Z,9.719118
2022-11-15T00:27:55.642Z,9.719126
2022-11-15T00:28:55.643Z,9.719109
2022-11-15T00:29:55.636Z,9.719024
2022-11-15T00:30:55.619Z,9.719051
2022-11-15T00:31:55.596Z,9.719012
2022-11-15T00:32:55.619Z,9.718977
2022-11-15T00:33:55.576Z,9.718970
2022-11-15T00:34:55.581Z,9.719023
2022-11-15T00:35:55.566Z,9.719034
2022-11-15T00:36:55.611Z,9.719019
2022-11-15T00:37:55.542Z,9.719038
2022-11-15T00:38:55.539Z,9.719030
2022-11-15T00:39:55.530Z,9.718988
2022-11-15T00:40:55.585Z,9.719081
2022-11-15T00:41:55.527Z,9.719087
2022-11-15T00:42:55.498Z,9.719131
2022-11-15T00:43:55.486Z,9.719111
2022-11-15T00:44:55.480Z,9.719131
2022-11-15T00:45:55.471Z,9.719159
2022-11-15T00:46:55.466Z,9.719159
2022-11-15T00:47:55.444Z,9.719225
2022-11-15T00:48:55.443Z,9.719180
2022-11-15T00:49:55.453Z,9.719219
2022-11-15T00:50:55.419Z,9.719283
2022-11-15T00:51:55.421Z,9.719193
2022-11-15T00:52:55.426Z,9.719190
2022-11-15T00:53:55.385Z,9.719135
2022-11-15T00:54:55.374Z,9.719187
2022-11-15T00:55:55.370Z,9.719102
2022-11-15T00:56:55.414Z,9.719088
2022-11-15T00:57:55.365Z,9.719117
2022-11-15T00:58:55.347Z,9.719124
2022-11-15T00:59:55.331Z,9.719162
2022-11-15T01:00:55.418Z,9.719238
2022-11-15T01:01:56.314Z,9.719249
2022-11-15T01:02:55.302Z,9.719105
2022-11-15T01:03:59.987Z,9.719020
2022-11-15T01:04:57.285Z,9.719147
2022-11-15T01:05:55.293Z,9.719123
2022-11-15T01:06:55.287Z,9.719193
2022-11-15T01:07:55.261Z,9.719111
2022-11-15T01:08:55.237Z,9.719205
2022-11-15T01:09:55.256Z,9.719165
2022-11-15T01:10:55.220Z,9.719121
2022-11-15T01:11:55.211Z,9.719065
2022-11-15T01:12:55.199Z,9.719042
2022-11-15T01:13:55.206Z,9.719284
2022-11-15T01:14:55.176Z,9.719390
2022-11-15T01:15:55.172Z,9.719111
2022-11-15T01:16:55.180Z,9.719119
2022-11-15T01:17:55.146Z,9.719172
2022-11-15T01:18:55.153Z,9.719153
2022-11-15T01:19:55.137Z,9.719107
2022-11-15T01:20:55.121Z,9.719069
2022-11-15T01:21:55.118Z,9.719111
2022-11-15T01:22:55.102Z,9.719105
2022-11-15T01:23:55.123Z,9.719166
2022-11-15T01:24:55.107Z,9.719173
2022-11-15T01:25:55.064Z,9.719176
2022-11-15T01:26:55.121Z,9.719147
2022-11-15T01:27:55.082Z,9.719025
2022-11-15T01:28:55.038Z,9.719084
2022-11-15T01:29:55.026Z,9.719038
2022-11-15T01:30:55.035Z,9.718989
2022-11-15T01:31:55.015Z,9.719116
2022-11-15T01:32:55.001Z,9.719119
2022-11-15T01:33:55.027Z,9.719136
2022-11-15T01:34:54.994Z,9.719103
2022-11-15T01:35:54.999Z,9.719121
2022-11-15T01:36:54.960Z,9.719096
2022-11-15T01:37:54.948Z,9.719075
2022-11-15T01:38:54.957Z,9.719178
2022-11-15T01:39:54.939Z,9.719131
2022-11-15T01:40:54.923Z,9.719192
2022-11-15T01:41:54.917Z,9.719151
2022-11-15T01:42:54.923Z,9.719134
2022-11-15T01:43:54.894Z,9.719179
2022-11-15T01:44:54.889Z,9.719214
2022-11-15T01:45:54.908Z,9.719262
2022-11-15T01:46:54.918Z,9.719218
2022-11-15T01:47:54.876Z,9.719097
2022-11-15T01:48:54.851Z,9.719068
2022-11-15T01:49:54.839Z,9.719083
2022-11-15T01:50:54.938Z,9.719159
2022-11-15T01:51:54.844Z,9.719109
2022-11-15T01:52:54.834Z,9.719075
2022-11-15T01:53:54.802Z,9.719116
2022-11-15T01:54:54.792Z,9.719167
2022-11-15T01:55:54.781Z,9.719158
2022-11-15T01:56:54.820Z,9.719209
2022-11-15T01:57:54.825Z,9.719184
2022-11-15T01:58:54.747Z,9.719170
2022-11-15T01:59:55.756Z,9.719202
2022-11-15T02:00:54.769Z,9.719175
2022-11-15T02:01:54.814Z,9.719186
2022-11-15T02:02:54.722Z,9.719178
2022-11-15T02:03:54.681Z,9.719154
2022-11-15T02:04:54.697Z,9.719144
2022-11-15T02:05:54.689Z,9.719124
2022-11-15T02:06:54.735Z,9.719158
2022-11-15T02:07:54.654Z,9.719255
2022-11-15T02:08:54.710Z,9.719159
2022-11-15T02:09:54.679Z,9.719244
2022-11-15T02:10:54.636Z,9.719179
2022-11-15T02:11:54.617Z,9.719120
2022-11-15T02:12:54.610Z,9.719209
2022-11-15T02:13:54.626Z,9.719106
2022-11-15T02:14:54.604Z,9.719205
2022-11-15T02:15:56.937Z,9.719131
2022-11-15T02:16:54.630Z,9.719187
2022-11-15T02:17:54.600Z,9.719140
2022-11-15T02:18:54.571Z,9.719080
2022-11-15T02:19:54.556Z,9.719075
2022-11-15T02:20:54.540Z,9.719284
2022-11-15T02:21:54.533Z,9.719297
2022-11-15T02:22:54.535Z,9.718697
2022-11-15T02:23:54.514Z,9.719008
2022-11-15T02:24:54.494Z,9.718861
2022-11-15T02:25:54.487Z,9.719077
2022-11-15T02:26:54.471Z,9.719173
2022-11-15T02:27:54.480Z,9.719220
2022-11-15T02:28:54.489Z,9.719052
2022-11-15T02:29:54.449Z,9.719231
2022-11-15T02:30:54.468Z,9.719086
2022-11-15T02:31:54.425Z,9.719204
2022-11-15T02:32:54.435Z,9.719274
2022-11-15T02:33:54.413Z,9.718835
2022-11-15T02:34:54.427Z,9.718782
2022-11-15T02:35:54.387Z,9.719159
2022-11-15T02:36:54.383Z,9.719427
2022-11-15T02:37:54.374Z,9.719347
2022-11-15T02:38:54.396Z,9.719193
2022-11-15T02:39:54.379Z,9.719078
2022-11-15T02:40:54.346Z,9.718976
2022-11-15T02:41:54.339Z,9.719142
2022-11-15T02:42:54.325Z,9.719633
2022-11-15T02:43:54.343Z,9.719244
2022-11-15T02:44:54.306Z,9.719271
2022-11-15T02:45:54.318Z,9.719171
2022-11-15T02:46:54.282Z,9.719086
2022-11-15T02:47:54.286Z,9.719181
2022-11-15T02:48:54.269Z,9.718995
2022-11-15T02:49:54.283Z,9.719002
2022-11-15T02:50:54.248Z,9.718956
2022-11-15T02:51:54.265Z,9.718960
2022-11-15T02:53:26.187Z,9.719050
2022-11-15T02:53:54.352Z,9.719058
2022-11-15T02:54:54.255Z,9.719022
2022-11-15T02:55:54.219Z,9.718999
2022-11-15T02:56:54.213Z,9.719067
2022-11-15T02:57:54.201Z,9.719031
2022-11-15T02:58:54.178Z,9.719032
2022-11-15T02:59:54.196Z,9.718999
2022-11-15T03:00:54.204Z,9.719021
2022-11-15T03:01:54.169Z,9.718945
2022-11-15T03:02:54.140Z,9.718951
2022-11-15T03:03:54.141Z,9.719440
2022-11-15T03:04:54.115Z,9.719258
2022-11-15T03:05:54.128Z,9.719090
2022-11-15T03:06:54.263Z,9.719090
2022-11-15T03:07:59.403Z,9.719090
2022-11-15T03:08:55.086Z,9.719090
2022-11-15T03:09:54.066Z,9.719090
2022-11-15T03:10:54.116Z,9.719090
2022-11-15T03:11:54.073Z,9.718609
2022-11-15T03:12:54.057Z,9.718609
2022-11-15T03:13:54.036Z,9.718609
2022-11-15T03:14:54.041Z,9.719309
2022-11-15T03:15:54.080Z,9.719030
2022-11-15T03:16:54.025Z,9.719180
2022-11-15T03:17:53.993Z,9.719444
2022-11-15T03:18:54.018Z,9.719213
2022-11-15T03:19:53.984Z,9.719170
2022-11-15T03:20:54.057Z,9.719380
2022-11-15T03:21:53.961Z,9.719355
2022-11-15T03:22:53.960Z,9.719099
2022-11-15T03:23:53.957Z,9.719242
2022-11-15T03:24:54.040Z,9.718957
2022-11-15T03:25:53.930Z,9.718808
2022-11-15T03:26:53.933Z,9.719247
2022-11-15T03:27:53.911Z,9.718971
2022-11-15T03:28:53.890Z,9.718859
2022-11-15T03:29:53.875Z,9.718865
2022-11-15T03:30:54.017Z,9.719275
2022-11-15T03:31:53.848Z,9.719137
2022-11-15T03:32:53.891Z,9.718965
2022-11-15T03:33:53.885Z,9.718998
2022-11-15T03:34:54.000Z,9.719115
2022-11-15T03:35:53.824Z,9.719030
2022-11-15T03:36:53.840Z,9.719030
2022-11-15T03:37:53.883Z,9.719577
2022-11-15T03:38:53.794Z,9.719300
2022-11-15T03:39:53.881Z,9.719231
2022-11-15T03:40:53.795Z,9.719421
2022-11-15T03:41:53.779Z,9.719155
2022-11-15T03:42:53.769Z,9.718992
2022-11-15T03:43:53.764Z,9.719085
2022-11-15T03:44:53.787Z,9.719259
2022-11-15T03:45:53.757Z,9.719387
2022-11-15T03:46:53.780Z,9.719151
2022-11-15T03:47:53.793Z,9.719062
2022-11-15T03:48:53.759Z,9.719216
2022-11-15T03:49:53.758Z,9.719135
2022-11-15T03:50:53.708Z,9.719151
2022-11-15T03:51:53.678Z,9.719042
2022-11-15T03:52:53.678Z,9.719097
2022-11-15T03:53:53.691Z,9.719203
2022-11-15T03:54:53.670Z,9.719255
2022-11-15T03:55:53.668Z,9.719137
2022-11-15T03:56:53.703Z,9.719189
2022-11-15T03:57:53.666Z,9.719205
2022-11-15T03:58:53.616Z,9.719244
2022-11-15T03:59:53.648Z,9.719125
2022-11-15T04:00:53.661Z,9.719153
2022-11-15T04:01:53.590Z,9.719111
2022-11-15T04:02:53.578Z,9.719138
2022-11-15T04:03:53.576Z,9.719217
2022-11-15T04:04:53.578Z,9.719174
2022-11-15T04:05:53.542Z,9.719262
2022-11-15T04:06:53.610Z,9.719007
2022-11-15T04:07:53.537Z,9.719142
2022-11-15T04:08:53.618Z,9.719118
2022-11-15T04:09:53.515Z,9.719093
2022-11-15T04:10:53.497Z,9.719127
2022-11-15T04:11:53.483Z,9.719058
2022-11-15T04:12:53.461Z,9.719002
2022-11-15T04:13:53.505Z,9.719176
2022-11-15T04:14:53.483Z,9.719187
2022-11-15T04:15:53.457Z,9.719196
2022-11-15T04:16:53.539Z,9.719119
2022-11-15T04:17:53.433Z,9.719064
2022-11-15T04:18:53.525Z,9.719038
2022-11-15T04:19:53.412Z,9.719049
2022-11-15T04:20:53.422Z,9.719101
2022-11-15T04:21:53.405Z,9.719054
2022-11-15T04:22:53.377Z,9.719047
2022-11-15T04:23:53.424Z,9.719056
2022-11-15T04:24:53.372Z,9.719049
2022-11-15T04:25:53.372Z,9.718921
2022-11-15T04:26:53.351Z,9.718891
2022-11-15T04:27:53.333Z,9.719082
2022-11-15T04:28:53.360Z,9.719173
2022-11-15T04:29:53.323Z,9.719135
2022-11-15T04:30:53.309Z,9.719094
2022-11-15T04:31:53.296Z,9.719147
2022-11-15T04:32:53.285Z,9.719188
2022-11-15T04:33:53.291Z,9.719205
2022-11-15T04:34:53.256Z,9.719058
2022-11-15T04:35:53.243Z,9.719130
2022-11-15T04:36:53.235Z,9.719310
2022-11-15T04:37:53.252Z,9.719324
2022-11-15T04:38:53.300Z,9.719213
2022-11-15T04:39:53.243Z,9.719114
2022-11-15T04:40:53.293Z,9.719213
2022-11-15T04:41:53.211Z,9.719224
2022-11-15T04:42:53.204Z,9.718959
2022-11-15T04:43:53.193Z,9.718860
2022-11-15T04:44:53.161Z,9.718306
2022-11-15T04:45:53.158Z,9.718577
2022-11-15T04:46:53.149Z,9.718577
2022-11-15T04:47:53.156Z,9.719277
2022-11-15T04:48:58.231Z,9.719492
2022-11-15T04:49:55.117Z,9.720134
2022-11-15T04:50:53.099Z,9.719914
2022-11-15T04:51:53.114Z,9.719886
2022-11-15T04:52:53.093Z,9.719894
2022-11-15T04:53:53.109Z,9.719590
2022-11-15T04:54:53.077Z,9.719590
2022-11-15T04:55:53.071Z,9.719590
2022-11-15T04:56:53.055Z,9.719590
2022-11-15T04:57:53.243Z,9.719590
2022-11-15T04:58:53.027Z,9.719590
2022-11-15T04:59:53.030Z,9.719547
2022-11-15T05:00:53.118Z,9.720002
2022-11-15T05:01:53.005Z,9.719790
2022-11-15T05:02:52.994Z,9.719802
2022-11-15T05:03:53.019Z,9.719633
2022-11-15T05:04:52.971Z,9.719571
2022-11-15T05:05:53.059Z,9.719698
2022-11-15T05:06:53.098Z,9.719844
2022-11-15T05:07:53.948Z,9.719066
2022-11-15T05:08:52.941Z,9.719132
2022-11-15T05:09:52.949Z,9.719151
2022-11-15T05:10:52.925Z,9.719149
2022-11-15T05:11:52.928Z,9.719197
2022-11-15T05:12:52.931Z,9.719194
2022-11-15T05:13:52.883Z,9.719119
2022-11-15T05:14:52.963Z,9.719036
2022-11-15T05:15:52.882Z,9.719086
2022-11-15T05:16:52.879Z,9.719133
2022-11-15T05:17:52.898Z,9.719086
2022-11-15T05:18:52.844Z,9.719138
2022-11-15T05:19:52.830Z,9.719188
2022-11-15T05:20:52.818Z,9.719090
2022-11-15T05:21:52.815Z,9.718999
2022-11-15T05:22:52.857Z,9.719013
2022-11-15T05:23:52.810Z,9.719092
2022-11-15T05:24:52.772Z,9.719062
2022-11-15T05:25:52.807Z,9.719080
2022-11-15T05:26:52.754Z,9.719001
2022-11-15T05:27:52.750Z,9.719118
2022-11-15T05:28:52.770Z,9.719095
2022-11-15T05:29:52.739Z,9.719094
2022-11-15T05:30:52.714Z,9.719119
2022-11-15T05:31:52.830Z,9.718936
2022-11-15T05:32:52.701Z,9.719102
2022-11-15T05:33:52.708Z,9.719193
2022-11-15T05:34:52.689Z,9.719148
2022-11-15T05:35:52.647Z,9.718905
2022-11-15T05:36:52.654Z,9.719143
2022-11-15T05:37:52.675Z,9.719260
2022-11-15T05:38:52.657Z,9.719111
2022-11-15T05:39:52.653Z,9.719211
2022-11-15T05:40:52.634Z,9.718953
2022-11-15T05:41:52.660Z,9.719543
2022-11-15T05:42:52.606Z,9.719487
2022-11-15T05:43:52.587Z,9.719332
2022-11-15T05:44:52.566Z,9.719261
2022-11-15T05:45:52.635Z,9.719273
2022-11-15T05:46:52.574Z,9.719253
2022-11-15T05:47:52.552Z,9.719319
2022-11-15T05:48:52.579Z,9.719492
2022-11-15T05:49:52.528Z,9.719203
2022-11-15T05:50:52.514Z,9.719357
2022-11-15T05:51:52.510Z,9.719271
2022-11-15T05:52:52.503Z,9.719154
2022-11-15T05:53:52.582Z,9.719021
2022-11-15T05:54:53.522Z,9.719168
2022-11-15T05:55:52.509Z,9.719230
2022-11-15T05:56:52.456Z,9.718996
2022-11-15T05:57:52.438Z,9.719050
2022-11-15T05:58:56.765Z,9.719150
2022-11-15T05:59:53.434Z,9.719109
2022-11-15T06:00:52.491Z,9.718969
2022-11-15T06:01:52.466Z,9.718858
2022-11-15T06:02:52.430Z,9.718657
2022-11-15T06:03:52.417Z,9.718768
2022-11-15T06:04:52.365Z,9.719073
2022-11-15T06:05:52.357Z,9.719183
2022-11-15T06:06:52.455Z,9.719350
2022-11-15T06:07:52.348Z,9.719349
2022-11-15T06:08:52.375Z,9.719333
2022-11-15T06:09:52.478Z,9.719365
2022-11-15T06:10:52.305Z,9.719253
2022-11-15T06:11:52.295Z,9.719264
2022-11-15T06:12:52.299Z,9.719128
2022-11-15T06:13:52.288Z,9.719026
2022-11-15T06:14:52.285Z,9.719134
2022-11-15T06:15:52.289Z,9.719005
2022-11-15T06:16:52.253Z,9.719099
2022-11-15T06:17:52.248Z,9.719032
2022-11-15T06:18:52.297Z,9.719006
2022-11-15T06:19:52.243Z,9.719070
2022-11-15T06:20:52.245Z,9.718989
2022-11-15T06:21:52.285Z,9.719123
2022-11-15T06:22:52.195Z,9.719111
2022-11-15T06:23:52.194Z,9.719183
2022-11-15T06:24:52.176Z,9.719138
2022-11-15T06:25:52.182Z,9.719118
2022-11-15T06:26:52.176Z,9.719039
2022-11-15T06:27:52.153Z,9.719145
2022-11-15T06:28:52.181Z,9.719058
2022-11-15T06:29:52.118Z,9.719059
2022-11-15T06:30:53.404Z,9.719074
2022-11-15T06:31:53.153Z,9.719029
2022-11-15T06:32:52.099Z,9.719000
2022-11-15T06:33:52.089Z,9.719008
2022-11-15T06:34:52.073Z,9.719027
2022-11-15T06:35:52.075Z,9.719074
2022-11-15T06:36:52.132Z,9.719059
2022-11-15T06:37:52.046Z,9.719120
2022-11-15T06:38:52.063Z,9.719084
2022-11-15T06:39:52.037Z,9.719031
2022-11-15T06:40:52.008Z,9.719089
2022-11-15T06:41:52.008Z,9.719131
2022-11-15T06:42:52.012Z,9.719081
2022-11-15T06:43:51.994Z,9.719116
2022-11-15T06:44:52.000Z,9.719012
2022-11-15T06:45:51.968Z,9.719132
2022-11-15T06:46:51.960Z,9.718922
2022-11-15T06:47:51.950Z,9.718966
2022-11-15T06:48:51.957Z,9.718968
2022-11-15T06:49:51.921Z,9.719049
2022-11-15T06:50:51.934Z,9.719188
2022-11-15T06:51:51.929Z,9.719194
2022-11-15T06:52:51.896Z,9.719229
2022-11-15T06:53:52.013Z,9.719225
2022-11-15T06:54:51.873Z,9.719217
2022-11-15T06:55:55.261Z,9.719094
2022-11-15T06:56:52.858Z,9.719179
2022-11-15T06:57:51.848Z,9.719208
2022-11-15T06:58:51.853Z,9.719147
2022-11-15T06:59:51.856Z,9.719216
2022-11-15T07:00:51.856Z,9.719128
2022-11-15T07:01:51.829Z,9.719124
2022-11-15T07:02:51.818Z,9.718931
2022-11-15T07:03:51.783Z,9.719341
2022-11-15T07:04:51.775Z,9.719366
2022-11-15T07:05:51.771Z,9.719524
2022-11-15T07:06:51.863Z,9.719410
2022-11-15T07:07:51.755Z,9.719341
2022-11-15T07:08:51.769Z,9.719296
2022-11-15T07:09:51.748Z,9.719432
2022-11-15T07:10:51.723Z,9.719437
2022-11-15T07:11:51.723Z,9.719446
2022-11-15T07:12:51.706Z,9.719432
2022-11-15T07:13:51.718Z,9.719536
2022-11-15T07:14:51.691Z,9.719527
2022-11-15T07:15:51.712Z,9.719465
2022-11-15T07:16:51.663Z,9.719471
2022-11-15T07:17:51.656Z,9.719499
2022-11-15T07:18:51.659Z,9.719439
2022-11-15T07:19:51.643Z,9.719438
2022-11-15T07:20:51.633Z,9.719562
2022-11-15T07:21:51.624Z,9.719605
2022-11-15T07:22:51.607Z,9.719667
2022-11-15T07:23:51.628Z,9.719634
2022-11-15T07:24:51.579Z,9.719491
2022-11-15T07:25:51.595Z,9.719515
2022-11-15T07:26:51.617Z,9.719733
2022-11-15T07:27:51.566Z,9.719691
2022-11-15T07:28:51.542Z,9.719633
2022-11-15T07:29:51.553Z,9.719562
2022-11-15T07:30:51.530Z,9.719492
2022-11-15T07:31:51.535Z,9.719370
2022-11-15T07:32:51.556Z,9.719236
2022-11-15T07:33:51.513Z,9.719469
2022-11-15T07:34:51.526Z,9.719445
2022-11-15T07:35:51.481Z,9.719337
2022-11-15T07:36:51.479Z,9.719461
2022-11-15T07:37:51.485Z,9.719424
2022-11-15T07:38:51.445Z,9.719275
2022-11-15T07:39:51.456Z,9.719200
2022-11-15T07:40:51.448Z,9.719643
2022-11-15T07:41:51.439Z,9.719578
2022-11-15T07:42:51.425Z,9.719733
2022-11-15T07:43:51.401Z,9.719415
2022-11-15T07:44:51.424Z,9.719535
2022-11-15T07:45:56.004Z,9.719427
2022-11-15T07:46:53.374Z,9.719389
2022-11-15T07:47:51.466Z,9.719389
2022-11-15T07:48:51.351Z,9.719135
2022-11-15T07:49:51.367Z,9.719360
2022-11-15T07:50:51.332Z,9.719463
2022-11-15T07:51:51.323Z,9.719379
2022-11-15T07:52:51.333Z,9.719450
2022-11-15T07:53:51.329Z,9.719163
2022-11-15T07:54:51.342Z,9.719341
2022-11-15T07:55:51.295Z,9.719510
2022-11-15T07:56:51.283Z,9.719436
2022-11-15T07:57:51.281Z,9.719338
2022-11-15T07:58:51.278Z,9.719360
2022-11-15T07:59:51.254Z,9.719501
2022-11-15T08:00:51.235Z,9.719252
2022-11-15T08:01:51.392Z,9.719153
2022-11-15T08:02:51.405Z,9.719178
2022-11-15T08:03:51.237Z,9.719302
2022-11-15T08:04:51.217Z,9.719117
2022-11-15T08:05:51.192Z,9.719246
2022-11-15T08:06:51.246Z,9.719187
2022-11-15T08:07:52.801Z,9.719249
2022-11-15T08:08:52.214Z,9.719153
2022-11-15T08:09:51.175Z,9.719325
2022-11-15T08:10:51.144Z,9.719289
2022-11-15T08:11:51.139Z,9.719368
2022-11-15T08:12:51.242Z,9.719268
2022-11-15T08:13:51.160Z,9.719275
2022-11-15T08:14:51.165Z,9.719414
2022-11-15T08:15:54.872Z,9.719380
2022-11-15T08:16:52.110Z,9.719332
2022-11-15T08:17:51.086Z,9.719335
2022-11-15T08:18:51.087Z,9.719231
2022-11-15T08:19:51.062Z,9.719366
2022-11-15T08:20:51.057Z,9.719387
2022-11-15T08:21:51.099Z,9.719309
2022-11-15T08:22:51.024Z,9.719418
2022-11-15T08:23:51.032Z,9.719220
2022-11-15T08:24:51.056Z,9.719338
2022-11-15T08:25:51.014Z,9.719352
2022-11-15T08:26:51.042Z,9.719395
2022-11-15T08:27:51.018Z,9.719437
2022-11-15T08:28:50.988Z,9.719435
2022-11-15T08:29:51.817Z,9.719321
2022-11-15T08:30:51.012Z,9.719358
2022-11-15T08:31:50.948Z,9.719310
2022-11-15T08:32:50.931Z,9.719240
2022-11-15T08:33:50.917Z,9.719319
2022-11-15T08:34:50.970Z,9.719239
2022-11-15T08:35:50.924Z,9.719363
2022-11-15T08:36:50.901Z,9.719263
2022-11-15T08:37:50.879Z,9.719326
2022-11-15T08:38:50.941Z,9.719379
2022-11-15T08:39:50.851Z,9.719296
2022-11-15T08:40:50.948Z,9.719236
2022-11-15T08:41:50.854Z,9.719286
2022-11-15T08:42:50.842Z,9.719274
2022-11-15T08:43:50.842Z,9.719241
2022-11-15T08:44:50.900Z,9.719277
2022-11-15T08:45:50.853Z,9.719209
2022-11-15T08:46:50.792Z,9.719205
2022-11-15T08:47:54.120Z,9.719276
2022-11-15T08:48:51.788Z,9.719198
2022-11-15T08:49:50.760Z,9.719227
2022-11-15T08:50:50.750Z,9.719203
2022-11-15T08:51:50.761Z,9.719230
2022-11-15T08:52:51.749Z,9.719171
2022-11-15T08:54:22.611Z,9.719191
2022-11-15T08:54:50.730Z,9.719165
2022-11-15T08:55:50.706Z,9.719086
2022-11-15T08:56:50.744Z,9.719251
2022-11-15T08:57:50.734Z,9.719283
2022-11-15T08:58:50.680Z,9.719285
2022-11-15T08:59:50.654Z,9.719341
2022-11-15T09:00:50.675Z,9.719313
2022-11-15T09:01:50.676Z,9.719225
2022-11-15T09:02:50.623Z,9.719184
2022-11-15T09:03:50.632Z,9.719104
2022-11-15T09:04:50.622Z,9.719073
2022-11-15T09:05:50.988Z,9.719137
2022-11-15T09:06:50.644Z,9.719075
2022-11-15T09:07:50.581Z,9.718899
2022-11-15T09:08:50.595Z,9.719059
2022-11-15T09:09:50.558Z,9.719058
2022-11-15T09:10:50.576Z,9.718976
2022-11-15T09:11:50.575Z,9.718808
2022-11-15T09:12:50.513Z,9.719102
2022-11-15T09:13:50.543Z,9.718987
2022-11-15T09:14:50.501Z,9.718966
2022-11-15T09:15:50.506Z,9.718918
2022-11-15T09:16:50.485Z,9.718925
2022-11-15T09:17:50.480Z,9.718958
2022-11-15T09:18:50.501Z,9.718892
2022-11-15T09:19:50.476Z,9.718966
2022-11-15T09:20:50.455Z,9.718817
2022-11-15T09:21:50.436Z,9.718881
2022-11-15T09:22:50.458Z,9.718801
2022-11-15T09:23:50.431Z,9.718847
2022-11-15T09:24:50.416Z,9.718956
2022-11-15T09:25:50.422Z,9.718997
2022-11-15T09:26:50.462Z,9.719127
2022-11-15T09:27:50.388Z,9.719091
2022-11-15T09:28:50.373Z,9.719129
2022-11-15T09:29:50.362Z,9.719101
2022-11-15T09:30:50.358Z,9.719127
2022-11-15T09:31:50.378Z,9.719172
2022-11-15T09:32:50.369Z,9.719225
2022-11-15T09:33:50.330Z,9.719140
2022-11-15T09:34:50.464Z,9.719157
2022-11-15T09:35:50.361Z,9.719263
2022-11-15T09:36:50.313Z,9.719172
2022-11-15T09:37:55.928Z,9.719118
2022-11-15T09:38:52.298Z,9.719121
2022-11-15T09:39:50.290Z,9.719116
2022-11-15T09:40:50.264Z,9.719139
2022-11-15T09:41:50.256Z,9.719117
2022-11-15T09:42:50.272Z,9.719170
2022-11-15T09:43:50.231Z,9.719167
2022-11-15T09:44:50.229Z,9.719141
2022-11-15T09:45:50.207Z,9.719151
2022-11-15T09:46:50.265Z,9.719165
2022-11-15T09:47:50.189Z,9.719153
2022-11-15T09:48:50.382Z,9.719374
2022-11-15T09:49:53.839Z,9.719554
2022-11-15T09:50:51.165Z,9.719584
2022-11-15T09:51:50.185Z,9.719494
2022-11-15T09:52:50.254Z,9.719168
2022-11-15T09:54:55.471Z,9.719248
2022-11-15T09:55:51.132Z,9.719222
2022-11-15T09:56:50.106Z,9.719240
2022-11-15T09:57:50.220Z,9.719563
2022-11-15T09:58:50.102Z,9.719659
2022-11-15T09:59:50.108Z,9.719700
2022-11-15T10:00:50.271Z,9.719715
2022-11-15T10:01:50.163Z,9.719543
2022-11-15T10:02:50.107Z,9.719527
2022-11-15T10:03:50.056Z,9.719466
2022-11-15T10:04:50.023Z,9.719346
2022-11-15T10:05:50.047Z,9.719311
2022-11-15T10:06:50.079Z,9.719399
2022-11-15T10:07:50.004Z,9.719320
2022-11-15T10:08:49.977Z,9.719309
2022-11-15T10:09:49.976Z,9.719307
2022-11-15T10:10:50.000Z,9.719331
2022-11-15T10:11:49.960Z,9.719300
2022-11-15T10:12:49.947Z,9.719227
2022-11-15T10:13:49.933Z,9.719228
2022-11-15T10:14:54.356Z,9.719238
2022-11-15T10:15:50.954Z,9.719263
2022-11-15T10:16:49.956Z,9.719280
2022-11-15T10:17:49.896Z,9.719280
2022-11-15T10:18:49.914Z,9.719280
2022-11-15T10:19:49.876Z,9.719280
2022-11-15T10:20:49.876Z,9.719280
2022-11-15T10:21:49.885Z,9.719280
2022-11-15T10:22:49.886Z,9.719280
2022-11-15T10:23:49.834Z,9.718626
2022-11-15T10:24:49.818Z,9.718863
2022-11-15T10:25:49.818Z,9.718847
2022-11-15T10:26:49.804Z,9.718987
2022-11-15T10:27:49.850Z,9.719090
2022-11-15T10:28:49.811Z,9.719086
2022-11-15T10:29:49.788Z,9.719103
2022-11-15T10:30:49.764Z,9.719185
2022-11-15T10:31:49.782Z,9.719153
2022-11-15T10:32:49.830Z,9.719087
2022-11-15T10:33:49.764Z,9.719236
2022-11-15T10:34:49.769Z,9.719314
2022-11-15T10:35:49.787Z,9.719296
2022-11-15T10:36:50.523Z,9.719279
2022-11-15T10:37:50.696Z,9.719411
2022-11-15T10:38:49.721Z,9.719380
2022-11-15T10:39:49.782Z,9.719546
2022-11-15T10:40:49.690Z,9.719440
2022-11-15T10:41:49.718Z,9.719520
2022-11-15T10:42:49.663Z,9.719478
2022-11-15T10:43:49.660Z,9.719398
2022-11-15T10:44:49.634Z,9.719383
2022-11-15T10:45:49.611Z,9.719430
2022-11-15T10:46:49.638Z,9.719424
2022-11-15T10:47:49.627Z,9.719537
2022-11-15T10:48:49.588Z,9.719585
2022-11-15T10:49:49.658Z,9.719560
2022-11-15T10:50:49.603Z,9.719581
2022-11-15T10:51:49.569Z,9.719588
2022-11-15T10:52:49.556Z,9.719554
2022-11-15T10:53:49.542Z,9.719480
2022-11-15T10:54:49.544Z,9.719476
2022-11-15T10:55:49.516Z,9.719476
2022-11-15T10:56:49.500Z,9.719476
2022-11-15T10:57:49.542Z,9.719476
2022-11-15T10:58:49.498Z,9.719238
2022-11-15T10:59:49.487Z,9.719140
2022-11-15T11:00:49.485Z,9.719211
2022-11-15T11:01:49.470Z,9.719258
2022-11-15T11:02:49.507Z,9.719167
2022-11-15T11:03:49.443Z,9.719288
2022-11-15T11:04:49.432Z,9.719189
2022-11-15T11:05:49.433Z,9.719101
2022-11-15T11:06:49.509Z,9.719226
2022-11-15T11:07:49.427Z,9.719269
2022-11-15T11:08:49.428Z,9.719109
2022-11-15T11:09:49.381Z,9.719146
2022-11-15T11:10:52.767Z,9.719110
2022-11-15T11:11:50.408Z,9.719060
2022-11-15T11:12:49.353Z,9.719228
2022-11-15T11:13:49.364Z,9.718274
2022-11-15T11:14:49.326Z,9.719011
2022-11-15T11:15:49.323Z,9.719188
2022-11-15T11:16:49.329Z,9.719205
2022-11-15T11:17:49.296Z,9.719197
2022-11-15T11:18:49.332Z,9.719224
2022-11-15T11:19:49.284Z,9.719070
2022-11-15T11:20:49.274Z,9.718987
2022-11-15T11:21:49.354Z,9.719126
2022-11-15T11:22:49.247Z,9.718981
2022-11-15T11:23:49.298Z,9.719184
2022-11-15T11:24:49.352Z,9.719138
2022-11-15T11:25:49.248Z,9.719239
2022-11-15T11:26:52.934Z,9.719168
2022-11-15T11:27:50.207Z,9.719349
2022-11-15T11:28:49.205Z,9.719162
2022-11-15T11:29:50.190Z,9.719239
2022-11-15T11:30:49.178Z,9.719196
2022-11-15T11:31:49.183Z,9.719394
2022-11-15T11:32:53.878Z,9.719341
2022-11-15T11:33:51.165Z,9.719224
2022-11-15T11:34:49.140Z,9.719301
2022-11-15T11:35:49.181Z,9.719549
2022-11-15T11:36:49.106Z,9.719437
2022-11-15T11:37:49.111Z,9.719387
2022-11-15T11:38:49.122Z,9.719364
2022-11-15T11:39:49.088Z,9.719266
2022-11-15T11:40:49.138Z,9.719290
2022-11-15T11:41:49.070Z,9.719426
2022-11-15T11:42:49.053Z,9.719600
2022-11-15T11:43:49.044Z,9.719420
2022-11-15T11:44:49.039Z,9.719483
2022-11-15T11:45:49.372Z,9.719650